createdAt,value
2019-05-05T00:08:35.213Z,6.97
2019-05-05T00:18:41.017Z,6.67
2019-05-05T00:28:45.537Z,6.43
2019-05-05T00:38:50.030Z,5.60
2019-05-05T00:48:55.112Z,6.17
2019-05-05T00:59:01.386Z,6.90
2019-05-05T01:09:08.041Z,7.13
2019-05-05T01:19:14.913Z,7.83
2019-05-05T01:29:19.202Z,8.33
2019-05-05T01:39:25.670Z,10.23
2019-05-05T01:49:30.170Z,9.93
2019-05-05T01:59:35.501Z,8.87
2019-05-05T02:09:40.186Z,9.47
2019-05-05T02:19:45.933Z,9.37
2019-05-05T02:29:52.113Z,8.57
2019-05-05T02:40:02.647Z,7.50
2019-05-05T02:50:08.377Z,9.47
2019-05-05T03:00:26.995Z,9.10
2019-05-05T03:10:33.963Z,7.57
2019-05-05T03:20:39.775Z,9.10
2019-05-05T03:30:45.771Z,8.47
2019-05-05T03:40:54.128Z,9.23
2019-05-05T03:50:58.646Z,9.37
2019-05-05T04:01:36.481Z,8.13
2019-05-05T04:11:41.846Z,8.10
2019-05-05T04:21:48.355Z,8.63
2019-05-05T04:31:54.059Z,9.50
2019-05-05T04:41:58.702Z,10.03
2019-05-05T04:52:14.703Z,10.17
2019-05-05T05:02:29.880Z,9.27
2019-05-05T05:12:34.401Z,8.80
2019-05-05T05:22:38.899Z,8.57
2019-05-05T05:32:44.521Z,8.80
2019-05-05T05:42:49.368Z,8.97
2019-05-05T05:52:54.150Z,10.67
2019-05-05T06:02:58.691Z,8.97
2019-05-05T06:13:04.088Z,12.27
2019-05-05T06:23:09.842Z,9.63
2019-05-05T06:33:16.090Z,11.17
2019-05-05T06:43:40.257Z,11.03
2019-05-05T06:53:44.781Z,10.15
2019-05-05T07:03:50.238Z,7.60
2019-05-05T07:13:54.803Z,6.50
2019-05-05T07:23:59.425Z,7.80
2019-05-05T07:34:05.734Z,6.37
2019-05-05T07:44:25.073Z,5.53
2019-05-05T07:54:16.582Z,6.87
2019-05-05T08:04:21.246Z,4.27
2019-05-05T08:14:25.689Z,4.00
2019-05-05T08:24:47.808Z,4.28
2019-05-05T08:34:59.708Z,5.63
2019-05-05T08:44:59.535Z,5.10
2019-05-05T08:55:04.788Z,3.90
2019-05-05T09:05:09.433Z,3.47
2019-05-05T09:15:14.169Z,3.40
2019-05-05T09:25:35.006Z,2.93
2019-05-05T09:35:39.943Z,2.90
2019-05-05T09:45:44.440Z,3.17
2019-05-05T09:55:48.962Z,3.30
2019-05-05T10:05:54.111Z,2.57
2019-05-05T10:15:58.927Z,2.50
2019-05-05T10:26:05.486Z,2.50
2019-05-05T10:36:10.170Z,2.53
2019-05-05T10:46:14.693Z,2.40
2019-05-05T10:56:21.388Z,2.57
2019-05-05T11:06:26.017Z,2.90
2019-05-05T11:16:30.759Z,2.30
2019-05-05T11:26:35.542Z,2.60
2019-05-05T11:36:44.559Z,2.50
2019-05-05T11:46:49.140Z,2.10
2019-05-05T11:56:54.157Z,2.30
2019-05-05T12:06:58.891Z,2.00
2019-05-05T12:17:04.583Z,2.20
2019-05-05T12:27:11.248Z,1.90
2019-05-05T12:37:15.747Z,2.10
2019-05-05T12:47:24.643Z,2.00
2019-05-05T12:57:29.796Z,1.63
2019-05-05T13:07:34.602Z,1.90
2019-05-05T13:17:39.462Z,2.50
2019-05-05T13:27:45.785Z,1.80
2019-05-05T13:37:50.442Z,1.90
2019-05-05T13:47:55.761Z,1.90
2019-05-05T13:58:00.711Z,1.50
2019-05-05T14:08:05.456Z,2.40
2019-05-05T14:18:11.022Z,2.00
2019-05-05T14:28:18.154Z,1.83
2019-05-05T14:38:23.658Z,1.90
2019-05-05T14:48:28.068Z,2.00
2019-05-05T14:58:32.541Z,1.77
2019-05-05T15:08:38.781Z,1.80
2019-05-05T15:18:43.967Z,1.93
2019-05-05T15:29:00.715Z,1.67
2019-05-05T15:38:55.291Z,1.50
2019-05-05T15:48:59.862Z,1.70
2019-05-05T15:59:04.369Z,1.82
2019-05-05T16:09:09.283Z,1.70
2019-05-05T16:19:31.365Z,1.60
2019-05-05T16:29:35.796Z,1.87
2019-05-05T16:39:40.294Z,1.73
2019-05-05T16:49:44.923Z,1.70
2019-05-05T16:59:49.569Z,2.47
2019-05-05T17:09:55.532Z,2.90
2019-05-05T17:20:04.892Z,2.10
2019-05-05T17:30:10.011Z,1.95
2019-05-05T17:40:16.326Z,1.90
2019-05-05T17:50:23.821Z,2.10
2019-05-05T18:00:30.341Z,1.77
2019-05-05T18:10:42.228Z,1.70
2019-05-05T18:20:46.966Z,1.70
2019-05-05T18:30:53.817Z,2.13
2019-05-05T18:40:59.848Z,1.93
2019-05-05T18:51:06.451Z,8.67
2019-05-05T19:01:21.679Z,15.53
2019-05-05T19:11:26.322Z,16.57
2019-05-05T19:21:38.468Z,12.70
2019-05-05T19:31:43.808Z,9.60
2019-05-05T19:41:48.758Z,7.57
2019-05-05T19:51:54.121Z,6.57
2019-05-05T20:01:58.885Z,4.40
2019-05-05T20:12:04.139Z,3.80
2019-05-05T20:22:08.843Z,5.03
2019-05-05T20:32:14.034Z,4.93
2019-05-05T20:42:18.549Z,6.10
2019-05-05T20:52:23.748Z,4.97
2019-05-05T21:02:28.258Z,4.23
2019-05-05T21:12:40.128Z,5.03
2019-05-05T21:22:40.486Z,6.53
2019-05-05T21:32:45.028Z,4.57
2019-05-05T21:42:49.543Z,4.67
2019-05-05T21:52:55.647Z,5.43
2019-05-05T22:03:01.545Z,6.67
2019-05-05T22:13:07.122Z,6.90
2019-05-05T22:23:11.787Z,6.10
2019-05-05T22:33:16.605Z,6.60
2019-05-05T22:43:21.208Z,6.57
2019-05-05T22:53:25.816Z,6.33
2019-05-05T23:03:31.953Z,5.83
2019-05-05T23:13:36.653Z,6.97
2019-05-05T23:23:59.186Z,8.20
2019-05-05T23:34:04.097Z,8.57
2019-05-05T23:44:08.651Z,7.87
2019-05-05T23:54:13.643Z,7.80
